Time;durP1;ratioP1;P1;durP2;ratioP2;P2;SDS_P1;SDS_P2;PMS_P1;PMS_P2;Temp;Humidity;BMP_temperature;BMP_pressure;BME280_temperature;BME280_humidity;BME280_pressure;Samples;Min_cycle;Max_cycle;Signal;HPM_P1;HPM_P2
2022/06/23 00:01:58;;;;;;;0.40;0.30;;;;;;;21.83;100.00;94988.84;5132567;27;20438;-63
2022/06/23 00:04:30;;;;;;;0.40;0.30;;;;;;;22.06;100.00;94994.47;5132902;27;20986;-63
2022/06/23 00:07:02;;;;;;;3.43;0.40;;;;;;;22.20;100.00;95002.09;5132543;28;20522;-63
2022/06/23 00:09:41;;;;;;;0.40;0.30;;;;;;;22.20;100.00;94985.91;5133303;28;20455;-63
2022/06/23 00:12:33;;;;;;;0.90;0.70;;;;;;;22.11;100.00;94989.56;5132734;28;20495;-63
2022/06/23 00:15:29;;;;;;;0.43;0.27;;;;;;;22.14;100.00;94999.69;5131362;27;20882;-63
2022/06/23 00:18:02;;;;;;;2.13;0.77;;;;;;;21.88;100.00;94985.94;5137040;27;20418;-63
2022/06/23 00:20:34;;;;;;;1.10;1.10;;;;;;;21.72;100.00;94992.44;5137025;27;20457;-64
2022/06/23 00:23:13;;;;;;;0.60;0.40;;;;;;;21.80;100.00;95002.28;5137316;27;20509;-63
2022/06/23 00:25:46;;;;;;;1.83;0.40;;;;;;;21.68;100.00;94980.78;5137240;27;20526;-63
2022/06/23 00:28:20;;;;;;;14.43;0.60;;;;;;;21.82;100.00;94995.41;5136894;27;20933;-64
2022/06/23 00:30:53;;;;;;;0.40;0.20;;;;;;;21.89;100.00;95000.19;5137017;27;20893;-64
2022/06/23 00:33:24;;;;;;;0.60;0.40;;;;;;;21.82;100.00;94975.72;5136160;27;20430;-63
2022/06/23 00:35:53;;;;;;;0.70;0.50;;;;;;;21.75;100.00;94989.03;5136929;27;20466;-64
2022/06/23 00:38:27;;;;;;;0.80;0.80;;;;;;;21.02;100.00;94899.69;5136614;27;20462;-64
2022/06/23 00:40:57;;;;;;;0.77;0.77;;;;;;;21.64;100.00;94999.56;5136699;27;20437;-64
2022/06/23 00:43:28;;;;;;;0.73;0.60;;;;;;;21.71;100.00;94991.63;5136803;27;20506;-64
2022/06/23 00:46:07;;;;;;;0.40;0.20;;;;;;;21.79;100.00;95003.38;5136372;27;20989;-64
2022/06/23 00:48:41;;;;;;;0.60;0.60;;;;;;;21.72;100.00;94987.03;5136869;27;20430;-64
2022/06/23 00:51:14;;;;;;;0.87;0.33;;;;;;;21.74;100.00;95000.94;5136253;27;21037;-64
2022/06/23 00:53:48;;;;;;;0.40;0.30;;;;;;;21.81;100.00;94998.41;5136414;27;20431;-64
2022/06/23 00:56:32;;;;;;;5.23;0.53;;;;;;;21.47;100.00;94995.28;5136332;27;20587;-64
2022/06/23 00:59:07;;;;;;;1.23;0.37;;;;;;;21.10;100.00;94976.94;5136474;27;20855;-64
2022/06/23 01:01:42;;;;;;;0.70;0.60;;;;;;;21.38;100.00;94986.53;5136163;27;20505;-65
2022/06/23 01:04:23;;;;;;;0.70;0.70;;;;;;;21.53;100.00;94969.59;5136148;27;20906;-65
2022/06/23 01:06:58;;;;;;;0.60;0.50;;;;;;;21.50;100.00;94956.06;5136316;27;20418;-65
2022/06/23 01:09:33;;;;;;;2.10;1.63;;;;;;;21.62;100.00;94976.75;5136178;27;20542;-65
2022/06/23 01:12:06;;;;;;;0.70;0.67;;;;;;;21.37;100.00;94978.81;5136212;27;20504;-65
2022/06/23 01:14:43;;;;;;;0.60;0.60;;;;;;;21.34;100.00;94982.97;5135775;27;20426;-65
2022/06/23 01:17:17;;;;;;;0.50;0.33;;;;;;;21.31;100.00;94983.66;5135864;27;20543;-65
2022/06/23 01:20:16;;;;;;;0.57;0.53;;;;;;;21.05;100.00;94996.78;5135654;27;20514;-65
2022/06/23 01:23:01;;;;;;;0.40;0.30;;;;;;;21.26;100.00;94996.59;5135707;27;20530;-65
2022/06/23 01:25:43;;;;;;;0.50;0.30;;;;;;;21.35;100.00;94986.47;5134518;27;20418;-66
2022/06/23 01:28:17;;;;;;;0.40;0.20;;;;;;;21.44;100.00;95005.97;5135552;27;20858;-65
2022/06/23 01:30:52;;;;;;;0.40;0.30;;;;;;;21.50;100.00;95010.75;5135694;27;20434;-65
2022/06/23 01:33:27;;;;;;;4.03;0.50;;;;;;;21.33;100.00;95008.38;5135253;27;20933;-65
2022/06/23 01:36:02;;;;;;;0.60;0.50;;;;;;;21.06;100.00;95003.78;5136803;27;20461;-64
2022/06/23 01:38:40;;;;;;;0.70;0.50;;;;;;;20.66;100.00;94944.50;5137979;27;20902;-66
2022/06/23 01:41:15;;;;;;;2.50;1.23;;;;;;;20.94;100.00;94963.38;5135558;27;20896;-66
2022/06/23 01:43:52;;;;;;;0.60;0.50;;;;;;;21.00;100.00;94980.84;5134943;27;20484;-65
2022/06/23 01:46:24;;;;;;;0.90;0.40;;;;;;;20.88;100.00;94981.69;5135480;27;20426;-65
2022/06/23 01:48:57;;;;;;;0.87;0.50;;;;;;;21.06;100.00;94971.44;5135328;27;20492;-65
2022/06/23 01:51:29;;;;;;;0.50;0.40;;;;;;;20.69;100.00;94934.97;5135364;27;20494;-65
2022/06/23 01:54:11;;;;;;;0.40;0.20;;;;;;;20.13;100.00;94881.00;5134062;27;20915;-65
2022/06/23 01:56:51;;;;;;;3.27;1.57;;;;;;;20.96;100.00;94973.78;5134982;27;20438;-65
2022/06/23 01:59:42;;;;;;;0.70;0.70;;;;;;;20.68;100.00;94976.47;5134732;27;20517;-65
2022/06/23 02:02:30;;;;;;;0.83;0.33;;;;;;;20.81;100.00;94996.88;5135094;27;20786;-68
2022/06/23 02:05:05;;;;;;;1.00;0.80;;;;;;;20.77;100.00;94980.59;5134850;27;20434;-66
2022/06/23 02:07:41;;;;;;;0.40;0.30;;;;;;;20.76;100.00;94989.03;5134773;27;20431;-66
2022/06/23 02:10:19;;;;;;;0.70;0.40;;;;;;;20.85;100.00;94976.19;5134835;27;20461;-66
2022/06/23 02:12:54;;;;;;;0.53;0.50;;;;;;;20.86;100.00;94969.69;5134842;27;20506;-66
2022/06/23 02:15:29;;;;;;;0.60;0.50;;;;;;;20.88;100.00;94984.38;5134858;27;20505;-66
2022/06/23 02:18:03;;;;;;;0.47;0.33;;;;;;;21.03;100.00;94984.75;5134946;27;20987;-66
2022/06/23 02:20:42;;;;;;;0.50;0.30;;;;;;;20.85;100.00;94984.25;5134695;27;20431;-67
2022/06/23 02:23:28;;;;;;;0.50;0.30;;;;;;;20.33;100.00;94994.25;5134644;27;20789;-66
2022/06/23 02:26:07;;;;;;;0.60;0.60;;;;;;;20.60;100.00;94977.38;5134496;27;20907;-66
2022/06/23 02:28:39;;;;;;;0.50;0.40;;;;;;;20.84;100.00;94980.81;5134818;27;20462;-67
2022/06/23 02:31:21;;;;;;;2.10;0.40;;;;;;;21.01;100.00;94978.94;5134431;27;20918;-67
2022/06/23 02:33:57;;;;;;;1.23;0.73;;;;;;;21.07;100.00;94973.00;5134294;27;20877;-67
2022/06/23 02:36:37;;;;;;;0.40;0.30;;;;;;;21.08;100.00;94976.47;5134499;27;20466;-66
2022/06/23 02:39:13;;;;;;;0.67;0.37;;;;;;;20.62;100.00;94897.03;5133792;27;20990;-67
2022/06/23 02:41:48;;;;;;;0.57;0.50;;;;;;;20.86;100.00;94991.22;5134629;27;20505;-67
2022/06/23 02:44:38;;;;;;;0.50;0.40;;;;;;;20.99;100.00;94987.38;5133837;27;21013;-67
2022/06/23 02:47:23;;;;;;;0.50;0.30;;;;;;;21.00;100.00;94985.47;5134278;27;20482;-67
2022/06/23 02:50:18;;;;;;;0.40;0.30;;;;;;;21.03;100.00;94982.84;5134175;27;20843;-67
2022/06/23 02:53:11;;;;;;;0.60;0.33;;;;;;;20.70;100.00;94993.06;5134261;27;20884;-67
2022/06/23 02:55:51;;;;;;;0.40;0.30;;;;;;;20.77;100.00;94994.06;5134010;27;20864;-68
2022/06/23 02:58:26;;;;;;;0.40;0.30;;;;;;;20.80;100.00;94982.59;5133901;27;20477;-68
2022/06/23 03:01:01;;;;;;;1.27;1.17;;;;;;;20.81;100.00;94997.66;5133783;27;20504;-68
2022/06/23 03:03:39;;;;;;;0.50;0.30;;;;;;;20.71;100.00;94998.13;5133842;27;20469;-68
2022/06/23 03:06:16;;;;;;;1.83;1.73;;;;;;;20.88;100.00;94999.75;5133758;27;20430;-68
2022/06/23 03:08:52;;;;;;;0.40;0.30;;;;;;;20.92;100.00;95003.34;5133538;27;20475;-68
2022/06/23 03:14:14;;;;;;;0.40;0.20;;;;;;;20.78;100.00;95011.00;5132740;27;20517;-68
2022/06/23 03:16:48;;;;;;;0.50;0.33;;;;;;;20.67;100.00;95001.84;5133208;27;20979;-68
2022/06/23 03:19:23;;;;;;;0.53;0.50;;;;;;;20.58;100.00;95010.03;5133044;27;20426;-68
2022/06/23 03:21:56;;;;;;;0.53;0.50;;;;;;;20.57;100.00;95010.38;5133185;27;20512;-68
2022/06/23 03:24:29;;;;;;;0.60;0.60;;;;;;;20.37;100.00;95008.59;5133145;27;20965;-68
2022/06/23 03:27:05;;;;;;;0.40;0.30;;;;;;;20.41;100.00;94998.75;5133212;27;20796;-69
2022/06/23 03:29:41;;;;;;;0.50;0.40;;;;;;;20.58;100.00;95009.25;5132347;27;21068;-69
2022/06/23 03:32:13;;;;;;;0.50;0.30;;;;;;;20.63;100.00;95007.13;5133174;27;20466;-69
2022/06/23 03:35:02;;;;;;;0.50;0.30;;;;;;;20.73;100.00;95022.00;5133114;27;20422;-69
2022/06/23 03:37:42;;;;;;;0.40;0.30;;;;;;;20.64;100.00;95007.91;5132954;27;20422;-68
2022/06/23 03:43:27;;;;;;;0.80;0.80;;;;;;;20.80;100.00;95016.84;5089441;28;20467;-68
2022/06/23 03:45:59;;;;;;;0.70;0.40;;;;;;;20.82;100.00;95015.38;5126383;27;20530;-69
2022/06/23 03:48:33;;;;;;;0.60;0.40;;;;;;;20.89;100.00;95015.59;5133733;27;20915;-68
2022/06/23 03:51:07;;;;;;;0.40;0.30;;;;;;;20.98;100.00;95011.94;5132894;27;20434;-68
2022/06/23 03:53:42;;;;;;;2.60;0.83;;;;;;;20.99;100.00;95018.91;5132786;27;20462;-67
2022/06/23 03:56:17;;;;;;;0.50;0.30;;;;;;;21.02;100.00;95021.72;5132701;27;20446;-67
2022/06/23 03:58:52;;;;;;;0.40;0.30;;;;;;;21.05;100.00;95023.72;5132544;27;20438;-67
2022/06/23 04:01:25;;;;;;;3.97;1.53;;;;;;;21.10;100.00;95034.28;5131990;27;20896;-66
2022/06/23 04:03:58;;;;;;;0.50;0.50;;;;;;;21.16;100.00;95018.66;5132763;27;20431;-66
2022/06/23 04:06:40;;;;;;;0.73;0.60;;;;;;;20.80;100.00;95000.66;5132519;27;20866;-66
2022/06/23 04:09:15;;;;;;;0.77;0.50;;;;;;;20.93;100.00;95021.06;5133070;28;20418;-66
2022/06/23 04:11:59;;;;;;;1.40;1.30;;;;;;;21.19;100.00;95031.47;5132664;28;20898;-65
2022/06/23 04:14:41;;;;;;;0.50;0.27;;;;;;;21.29;100.00;95029.06;5132567;28;20512;-65
2022/06/23 04:17:16;;;;;;;16.10;0.70;;;;;;;21.38;100.00;95027.00;5132573;28;20461;-64
2022/06/23 04:19:48;;;;;;;0.80;0.30;;;;;;;21.56;100.00;95040.16;5131981;28;20475;-64
2022/06/23 04:22:23;;;;;;;0.40;0.30;;;;;;;21.58;100.00;95027.13;5132734;28;20515;-63
2022/06/23 04:24:56;;;;;;;1.67;1.57;;;;;;;21.34;100.00;95020.72;5132649;28;20417;-63
2022/06/23 04:27:28;;;;;;;0.60;0.60;;;;;;;21.54;100.00;95040.50;5132626;28;20462;-62
2022/06/23 04:29:59;;;;;;;0.70;0.53;;;;;;;21.54;100.00;95040.50;5132881;28;20491;-61
2022/06/23 04:32:30;;;;;;;0.60;0.60;;;;;;;21.02;100.00;95019.03;5131796;28;20504;-61
2022/06/23 04:35:09;;;;;;;1.50;1.40;;;;;;;21.11;100.00;95032.38;5132895;27;20426;-60
2022/06/23 04:37:45;;;;;;;1.27;1.27;;;;;;;21.05;100.00;94958.28;5132266;28;20984;-60
2022/06/23 04:40:23;;;;;;;3.30;0.77;;;;;;;21.27;100.00;95009.75;5132405;28;20457;-60
2022/06/23 04:42:57;;;;;;;0.50;0.40;;;;;;;21.13;100.00;95003.97;5132709;28;20426;-60
2022/06/23 04:45:42;;;;;;;0.87;0.60;;;;;;;21.11;100.00;95006.22;5132094;28;20526;-60
2022/06/23 04:48:20;;;;;;;1.17;0.87;;;;;;;21.12;100.00;95005.09;5132239;28;20438;-60
2022/06/23 04:50:56;;;;;;;1.03;0.90;;;;;;;21.55;100.00;95009.72;5132590;28;20469;-60
2022/06/23 04:53:39;;;;;;;0.40;0.30;;;;;;;21.89;100.00;95006.38;5132594;27;20538;-60
2022/06/23 04:56:14;;;;;;;1.03;0.70;;;;;;;22.05;100.00;95022.59;5132366;28;21005;-60
2022/06/23 04:58:48;;;;;;;1.10;0.77;;;;;;;21.90;100.00;95009.88;5132221;28;20458;-60
2022/06/23 05:01:19;;;;;;;0.60;0.47;;;;;;;21.90;100.00;95005.28;5135673;27;20538;-59
2022/06/23 05:03:50;;;;;;;0.80;0.70;;;;;;;22.29;100.00;95003.50;5136175;27;20470;-59
2022/06/23 05:06:33;;;;;;;0.80;0.77;;;;;;;22.52;100.00;95004.41;5136523;27;20415;-59
2022/06/23 05:09:10;;;;;;;1.33;1.33;;;;;;;22.00;100.00;95007.44;5136084;27;20521;-59
2022/06/23 05:11:45;;;;;;;0.50;0.30;;;;;;;22.24;100.00;95011.84;5136212;27;20505;-59
2022/06/23 05:14:21;;;;;;;0.70;0.50;;;;;;;22.11;100.00;95010.41;5136248;27;20473;-58
2022/06/23 05:16:53;;;;;;;2.43;2.23;;;;;;;22.00;100.00;95007.44;5135670;27;20450;-58
2022/06/23 05:19:27;;;;;;;3.03;2.13;;;;;;;22.07;100.00;94958.25;5135959;27;20479;-58
2022/06/23 05:21:58;;;;;;;0.90;0.73;;;;;;;22.77;100.00;95004.97;5134694;27;20490;-58
2022/06/23 05:24:35;;;;;;;1.00;0.60;;;;;;;22.67;100.00;94997.44;5136217;27;20450;-51
2022/06/23 05:27:08;;;;;;;2.20;0.53;;;;;;;23.22;100.00;94998.97;5135803;27;20954;-52
2022/06/23 05:29:42;;;;;;;0.50;0.50;;;;;;;22.81;100.00;94995.03;5135644;27;20966;-51
2022/06/23 05:32:22;;;;;;;3.13;1.20;;;;;;;23.19;100.00;94999.69;5135537;27;20457;-51
2022/06/23 05:34:56;;;;;;;0.60;0.50;;;;;;;23.63;100.00;94990.09;5135186;27;20485;-53
2022/06/23 05:37:31;;;;;;;0.47;0.43;;;;;;;23.47;100.00;94994.06;5135746;27;20430;-53
2022/06/23 05:40:15;;;;;;;0.57;0.53;;;;;;;23.47;100.00;94983.25;5135298;27;20434;-50
2022/06/23 05:42:49;;;;;;;0.80;0.80;;;;;;;23.43;100.00;94985.13;5135609;27;20445;-50
2022/06/23 05:45:22;;;;;;;2.13;1.10;;;;;;;24.02;100.00;94983.44;5135216;27;20478;-51
2022/06/23 05:47:51;;;;;;;1.13;1.03;;;;;;;23.89;100.00;94990.19;5135121;27;20454;-52
2022/06/23 05:50:24;;;;;;;3.63;0.40;;;;;;;23.60;100.00;94903.47;5135107;27;20437;-52
2022/06/23 05:52:59;;;;;;;2.20;0.40;;;;;;;24.29;100.00;94997.81;5135139;27;20437;-52
2022/06/23 05:55:35;;;;;;;0.60;0.40;;;;;;;24.66;100.00;95002.63;5135172;27;20505;-52
2022/06/23 05:58:12;;;;;;;0.50;0.40;;;;;;;24.65;100.00;94999.13;5135500;27;20980;-52
2022/06/23 06:00:48;;;;;;;1.43;1.33;;;;;;;24.53;100.00;94993.94;5134458;27;20426;-52
2022/06/23 06:03:23;;;;;;;2.53;2.43;;;;;;;24.50;100.00;94994.66;5134948;27;20417;-50
2022/06/23 06:05:56;;;;;;;0.60;0.60;;;;;;;24.65;100.00;94939.50;5135128;27;20865;-51
2022/06/23 06:08:28;;;;;;;0.60;0.40;;;;;;;25.10;100.00;94930.41;5135247;27;20861;-51
2022/06/23 06:11:01;;;;;;;0.80;0.80;;;;;;;24.71;100.00;94862.16;5135100;27;20515;-51
2022/06/23 06:13:33;;;;;;;1.37;0.60;;;;;;;24.79;100.00;94974.19;5134741;27;20472;-51
2022/06/23 06:16:05;;;;;;;0.60;0.50;;;;;;;25.13;100.00;94981.97;5134786;27;20442;-51
2022/06/23 06:18:36;;;;;;;0.60;0.50;;;;;;;25.44;100.00;94983.50;5134769;27;20419;-51
2022/06/23 06:21:07;;;;;;;0.77;0.77;;;;;;;24.87;100.00;94975.84;5134641;27;20609;-52
2022/06/23 06:23:44;;;;;;;0.60;0.60;;;;;;;25.38;100.00;94981.47;5134744;27;20934;-51
2022/06/23 06:26:17;;;;;;;1.90;0.40;;;;;;;26.04;100.00;94959.66;5134639;27;20498;-54
2022/06/23 06:28:46;;;;;;;0.60;0.50;;;;;;;25.37;97.50;94969.06;5134399;27;20451;-51
2022/06/23 06:31:27;;;;;;;0.50;0.40;;;;;;;25.11;100.00;94968.03;5134437;27;20418;-51
2022/06/23 06:34:03;;;;;;;0.57;0.57;;;;;;;25.29;100.00;94973.66;5134104;27;21004;-51
2022/06/23 06:36:36;;;;;;;0.80;0.80;;;;;;;25.75;100.00;94974.16;5134279;27;20454;-51
2022/06/23 06:39:11;;;;;;;0.70;0.70;;;;;;;26.09;100.00;94980.25;5134197;27;20918;-51
2022/06/23 06:41:44;;;;;;;3.33;1.33;;;;;;;26.02;93.55;94978.28;5134545;27;20550;-51
2022/06/23 06:44:13;;;;;;;1.90;0.50;;;;;;;26.55;96.40;94991.50;5133825;27;20509;-51
2022/06/23 06:46:43;;;;;;;3.13;1.23;;;;;;;27.05;87.49;94990.66;5133889;27;20477;-51
2022/06/23 06:49:15;;;;;;;0.90;0.90;;;;;;;26.47;88.14;94890.13;5134179;27;20509;-51
2022/06/23 06:51:45;;;;;;;3.17;1.10;;;;;;;26.91;86.93;94979.72;5134225;27;20510;-51
2022/06/23 06:54:18;;;;;;;1.70;1.50;;;;;;;27.15;88.94;94978.28;5134262;27;21114;-51
2022/06/23 06:56:52;;;;;;;0.80;0.53;;;;;;;27.73;78.52;94959.78;5134049;27;20426;-51
2022/06/23 06:59:25;;;;;;;2.70;0.60;;;;;;;28.24;74.08;94954.00;5133939;27;20464;-51
2022/06/23 07:01:58;;;;;;;2.03;0.50;;;;;;;28.49;76.58;94951.28;5133899;27;20526;-51
2022/06/23 07:04:30;;;;;;;1.27;0.40;;;;;;;28.75;73.21;94946.16;5133691;27;20433;-52
2022/06/23 07:07:04;;;;;;;0.80;0.57;;;;;;;28.48;70.46;94941.53;5133482;27;20423;-52
2022/06/23 07:09:38;;;;;;;2.10;1.23;;;;;;;28.54;69.49;94942.69;5133741;27;20937;-74
2022/06/23 07:12:12;;;;;;;0.40;0.30;;;;;;;28.66;71.11;94913.09;5133746;27;20514;-67
2022/06/23 07:14:46;;;;;;;1.00;0.90;;;;;;;28.92;70.12;94931.69;5133491;27;20525;-63
2022/06/23 07:17:20;;;;;;;0.77;0.77;;;;;;;28.72;66.27;94943.44;5133907;27;20838;-64
2022/06/23 07:19:54;;;;;;;0.90;0.90;;;;;;;29.29;67.72;94960.44;5133528;27;20430;-65
2022/06/23 07:22:28;;;;;;;0.80;0.40;;;;;;;29.05;65.82;94953.84;5133437;27;20426;-65
2022/06/23 07:25:03;;;;;;;0.40;0.30;;;;;;;29.38;66.87;94964.28;5132825;27;20466;-66
2022/06/23 07:27:37;;;;;;;1.63;1.37;;;;;;;29.11;63.79;94924.22;5133539;27;20530;-66
2022/06/23 07:30:08;;;;;;;1.23;1.13;;;;;;;29.35;59.60;94959.59;5133296;27;20458;-70
2022/06/23 07:32:45;;;;;;;0.97;0.70;;;;;;;30.10;60.64;94958.00;5133384;27;20462;-73
2022/06/23 07:35:31;;;;;;;0.40;0.30;;;;;;;29.51;57.16;94912.72;5133456;27;20985;-71
2022/06/23 07:38:08;;;;;;;0.73;0.53;;;;;;;29.04;59.16;94899.69;5133370;27;20465;-73
2022/06/23 07:40:43;;;;;;;0.90;0.90;;;;;;;30.21;56.98;94943.47;5133679;27;20475;-71
2022/06/23 07:43:28;;;;;;;2.47;2.23;;;;;;;30.47;55.66;94932.69;5133566;27;20453;-74
2022/06/23 07:45:58;;;;;;;0.60;0.60;;;;;;;29.50;62.97;94938.47;5132278;27;20548;-74
2022/06/23 07:48:29;;;;;;;0.60;0.50;;;;;;;29.01;63.03;94922.31;5133627;27;20426;-72
2022/06/23 07:50:58;;;;;;;1.93;1.57;;;;;;;29.93;59.49;94923.38;5133409;27;20509;-70
2022/06/23 07:53:31;;;;;;;0.90;0.90;;;;;;;30.06;57.46;94918.19;5133182;27;20406;-70
2022/06/23 07:56:00;;;;;;;2.17;0.70;;;;;;;30.19;58.46;94925.50;5132945;27;20565;-69
2022/06/23 07:58:33;;;;;;;0.70;0.70;;;;;;;30.49;56.46;94919.41;5131938;27;20458;-68
2022/06/23 08:01:07;;;;;;;0.77;0.53;;;;;;;30.53;57.19;94920.16;5132859;27;20518;-70
2022/06/23 08:03:44;;;;;;;2.87;2.77;;;;;;;29.40;54.91;94814.47;5133081;27;20501;-69
2022/06/23 08:06:21;;;;;;;3.67;0.90;;;;;;;30.07;56.34;94856.88;5132921;27;20457;-61
2022/06/23 08:08:54;;;;;;;0.50;0.50;;;;;;;30.45;53.73;94833.88;5132923;28;20430;-60
2022/06/23 08:14:37;;;;;;;0.50;0.40;;;;;;;31.40;46.54;94859.25;5132624;28;20492;-60
2022/06/23 08:17:12;;;;;;;0.40;0.40;;;;;;;32.03;45.69;94863.81;5132842;28;20505;-60
2022/06/23 08:19:46;;;;;;;0.83;0.80;;;;;;;31.87;44.01;94895.78;5133707;27;20470;-59
2022/06/23 08:22:20;;;;;;;0.80;0.60;;;;;;;32.17;44.91;94884.75;5136949;28;20421;-58
2022/06/23 08:24:51;;;;;;;0.50;0.50;;;;;;;31.99;42.60;94876.03;5133235;27;20478;-61
2022/06/23 08:27:43;;;;;;;0.50;0.43;;;;;;;32.24;42.34;94912.03;5132602;28;20503;-60
2022/06/23 08:30:17;;;;;;;0.53;0.50;;;;;;;32.53;44.06;94915.09;5132708;28;20504;-60
2022/06/23 08:32:51;;;;;;;0.50;0.47;;;;;;;33.00;40.84;94905.56;5132629;27;20458;-60
2022/06/23 08:35:30;;;;;;;18.67;0.90;;;;;;;33.33;40.63;94895.47;5134280;27;20976;-60
2022/06/23 08:38:02;;;;;;;1.43;0.50;;;;;;;32.92;42.34;94898.66;5136787;27;20518;-60
2022/06/23 08:40:40;;;;;;;0.73;0.73;;;;;;;32.79;40.10;94899.72;5136678;27;20432;-59
2022/06/23 08:43:23;;;;;;;1.00;1.00;;;;;;;32.89;41.80;94902.22;5136741;27;21001;-60
2022/06/23 08:45:59;;;;;;;0.70;0.60;;;;;;;32.59;41.72;94892.22;5136506;27;21029;-59
2022/06/23 08:48:39;;;;;;;0.50;0.50;;;;;;;32.88;43.73;94875.22;5136666;27;20463;-59
2022/06/23 08:51:22;;;;;;;3.60;0.53;;;;;;;33.13;43.98;94886.50;5136390;27;20525;-60
2022/06/23 08:54:06;;;;;;;0.83;0.70;;;;;;;33.14;41.83;94885.31;5136415;27;20898;-60
2022/06/23 08:56:43;;;;;;;0.60;0.60;;;;;;;34.13;40.27;94888.59;5136407;27;20553;-60
2022/06/23 08:59:19;;;;;;;0.50;0.40;;;;;;;34.53;37.96;94889.91;5136410;27;20516;-60
2022/06/23 09:01:56;;;;;;;0.77;0.77;;;;;;;33.61;38.32;94874.88;5136165;27;20522;-61
2022/06/23 09:04:34;;;;;;;0.40;0.30;;;;;;;34.12;38.81;94881.53;5136656;27;20487;-61
2022/06/23 09:07:11;;;;;;;0.50;0.30;;;;;;;34.34;39.73;94866.03;5136491;27;20424;-60
2022/06/23 09:09:49;;;;;;;1.40;1.40;;;;;;;34.29;40.73;94874.81;5136181;27;20988;-60
2022/06/23 09:12:24;;;;;;;0.40;0.40;;;;;;;34.46;39.71;94873.56;5136128;27;20503;-61
2022/06/23 09:15:22;;;;;;;0.97;0.97;;;;;;;34.44;40.33;94873.22;5135829;27;20475;-60
2022/06/23 09:18:05;;;;;;;0.47;0.40;;;;;;;34.36;38.28;94866.34;5135874;27;20466;-61
2022/06/23 09:20:48;;;;;;;0.93;0.50;;;;;;;34.52;36.76;94860.03;5136265;27;20455;-61
2022/06/23 09:24:18;;;;;;;0.80;0.80;;;;;;;34.21;38.99;94854.16;5135772;27;20817;-62
2022/06/23 09:26:55;;;;;;;0.40;0.30;;;;;;;35.02;34.02;94872.03;5093543;27;20954;-62
2022/06/23 09:29:45;;;;;;;0.50;0.30;;;;;;;34.76;35.13;94844.88;5135661;27;20518;-62
2022/06/23 09:32:20;;;;;;;0.40;0.30;;;;;;;34.75;38.46;94862.59;5135933;27;20861;-62
2022/06/23 09:35:20;;;;;;;1.83;1.23;;;;;;;33.78;37.60;94813.97;5135604;27;20461;-62
2022/06/23 09:38:02;;;;;;;0.70;0.40;;;;;;;34.90;34.71;94852.72;5135839;27;20455;-61
2022/06/23 09:40:41;;;;;;;0.40;0.40;;;;;;;35.04;34.46;94847.59;5135177;27;20509;-62
2022/06/23 09:43:51;;;;;;;0.50;0.30;;;;;;;35.11;34.40;94841.13;5135403;27;20483;-62
2022/06/23 09:46:48;;;;;;;0.40;0.30;;;;;;;35.31;35.38;94835.41;5134717;27;20523;-62
2022/06/23 09:49:58;;;;;;;0.93;0.93;;;;;;;35.59;35.02;94832.59;5101046;27;20656;-62
2022/06/23 09:53:03;;;;;;;0.30;0.30;;;;;;;36.10;35.14;94830.53;5135410;27;20470;-62
2022/06/23 09:55:52;;;;;;;0.80;0.50;;;;;;;34.75;34.61;94830.34;5105103;27;20484;-61
2022/06/23 09:58:34;;;;;;;0.40;0.30;;;;;;;34.05;35.77;94826.69;5135194;27;20510;-62
2022/06/23 10:01:15;;;;;;;0.70;0.50;;;;;;;34.60;34.11;94785.13;5134039;27;20519;-62
2022/06/23 10:03:57;;;;;;;0.50;0.43;;;;;;;35.17;32.79;94813.81;5135195;27;20797;-62
2022/06/23 10:06:43;;;;;;;0.60;0.40;;;;;;;34.72;32.70;94814.69;5135086;27;20518;-62
2022/06/23 10:09:25;;;;;;;0.43;0.40;;;;;;;33.85;34.03;94819.28;5135102;27;20463;-62
2022/06/23 10:12:14;;;;;;;1.27;0.40;;;;;;;33.65;35.69;94824.09;5134928;27;20522;-62
2022/06/23 10:14:55;;;;;;;0.60;0.60;;;;;;;32.98;39.08;94783.63;5134471;27;20466;-63
2022/06/23 10:17:50;;;;;;;0.47;0.47;;;;;;;32.74;39.03;94818.63;5135040;27;20483;-62
2022/06/23 10:20:40;;;;;;;0.40;0.40;;;;;;;32.47;41.48;94810.50;5134881;27;20497;-62
2022/06/23 10:23:26;;;;;;;0.73;0.73;;;;;;;33.71;38.47;94807.88;5134530;27;20458;-61
2022/06/23 10:26:11;;;;;;;0.40;0.40;;;;;;;35.19;36.11;94800.38;5134634;27;20511;-61
2022/06/23 10:29:14;;;;;;;0.60;0.40;;;;;;;34.52;38.48;94805.78;5134854;27;20413;-61
2022/06/23 10:32:14;;;;;;;2.10;0.80;;;;;;;33.88;36.35;94792.91;5134309;27;20949;-62
2022/06/23 10:35:00;;;;;;;5.90;0.40;;;;;;;33.88;36.51;94789.41;5134361;27;20939;-61
2022/06/23 10:37:59;;;;;;;0.40;0.40;;;;;;;33.50;39.26;94797.34;5135148;27;20507;-62
2022/06/23 10:40:51;;;;;;;0.40;0.30;;;;;;;32.98;39.54;94786.34;5129501;27;20515;-62
2022/06/23 10:43:47;;;;;;;0.60;0.40;;;;;;;32.46;40.48;94789.75;5134212;27;20517;-61
2022/06/23 10:46:24;;;;;;;0.50;0.30;;;;;;;32.43;42.31;94784.34;5134261;27;20462;-60
2022/06/23 10:49:22;;;;;;;0.30;0.20;;;;;;;33.66;43.17;94770.69;5134102;27;20838;-59
2022/06/23 10:52:29;;;;;;;11.33;2.00;;;;;;;33.99;45.64;94771.41;5134256;27;20850;-60
2022/06/23 10:55:23;;;;;;;0.40;0.40;;;;;;;33.78;50.72;94758.97;5133900;27;20440;-59
2022/06/23 10:58:20;;;;;;;2.50;1.60;;;;;;;33.18;49.33;94647.03;5133925;27;20494;-60
2022/06/23 11:01:02;;;;;;;0.60;0.40;;;;;;;33.31;48.10;94691.06;5125422;27;20528;-59
2022/06/23 11:03:54;;;;;;;0.60;0.60;;;;;;;32.22;54.76;94707.97;5133837;27;20833;-61
2022/06/23 11:06:40;;;;;;;0.57;0.50;;;;;;;31.58;58.59;94719.31;5131088;27;20437;-60
2022/06/23 11:09:26;;;;;;;0.70;0.60;;;;;;;31.37;61.37;94748.56;5133604;27;20934;-61
2022/06/23 11:12:07;;;;;;;3.30;1.73;;;;;;;31.59;61.16;94751.00;5133957;27;20830;-61
2022/06/23 11:14:51;;;;;;;0.67;0.67;;;;;;;31.26;64.93;94771.84;5133572;27;20422;-62
2022/06/23 11:17:34;;;;;;;0.30;0.30;;;;;;;31.37;66.87;94767.75;5133537;27;20462;-63
2022/06/23 11:20:12;;;;;;;0.53;0.50;;;;;;;31.48;66.65;94784.03;5133397;27;20997;-65
2022/06/23 11:22:48;;;;;;;0.87;0.40;;;;;;;31.38;68.34;94791.22;5133829;27;20564;-66
2022/06/23 11:25:36;;;;;;;0.40;0.40;;;;;;;30.35;77.48;94812.91;5133316;27;20517;-64
2022/06/23 11:28:15;;;;;;;0.93;0.70;;;;;;;30.32;80.67;94818.38;5134507;27;20450;-62
2022/06/23 11:30:55;;;;;;;0.70;0.70;;;;;;;29.60;89.31;94833.84;5133487;27;20497;-60
2022/06/23 11:33:47;;;;;;;0.70;0.63;;;;;;;29.01;93.33;94845.91;5133361;27;20489;-61
2022/06/23 11:36:26;;;;;;;0.50;0.50;;;;;;;27.46;100.00;94836.84;5132955;27;20462;-61
2022/06/23 11:39:28;;;;;;;0.87;0.87;;;;;;;27.77;100.00;94801.84;5133286;27;20454;-62
2022/06/23 11:42:18;;;;;;;3.47;3.37;;;;;;;27.50;100.00;94810.41;5133090;27;20473;-62
2022/06/23 11:45:00;;;;;;;1.40;0.93;;;;;;;27.04;100.00;94799.44;5132935;27;20462;-62
2022/06/23 11:47:40;;;;;;;0.40;0.30;;;;;;;27.30;100.00;94808.44;5133054;27;20847;-62
2022/06/23 11:50:18;;;;;;;1.00;0.70;;;;;;;27.23;100.00;94820.09;5133062;27;20438;-63
2022/06/23 11:53:04;;;;;;;3.57;0.60;;;;;;;27.18;100.00;94836.00;5132792;27;20426;-63
2022/06/23 11:55:37;;;;;;;3.60;1.00;;;;;;;27.28;100.00;94840.69;5133016;27;20434;-63
2022/06/23 11:58:29;;;;;;;0.53;0.50;;;;;;;27.93;100.00;94826.75;5132474;27;20527;-64
2022/06/23 12:01:11;;;;;;;0.73;0.67;;;;;;;27.94;100.00;94806.47;5133112;27;20479;-64
2022/06/23 12:04:02;;;;;;;3.33;0.90;;;;;;;27.47;100.00;94819.38;5133368;27;20510;-64
2022/06/23 12:06:42;;;;;;;0.60;0.60;;;;;;;27.72;100.00;94805.75;5132836;27;20442;-64
2022/06/23 12:09:22;;;;;;;0.60;0.60;;;;;;;27.54;100.00;94799.53;5132208;27;20848;-64
2022/06/23 12:11:55;;;;;;;1.17;1.03;;;;;;;27.61;100.00;94803.03;5132543;28;20775;-63
2022/06/23 12:14:25;;;;;;;0.67;0.57;;;;;;;28.05;100.00;94801.84;5133007;28;20910;-62
2022/06/23 12:16:59;;;;;;;1.47;1.20;;;;;;;28.10;100.00;94794.03;5133450;27;20462;-63
2022/06/23 12:19:48;;;;;;;1.17;1.07;;;;;;;27.80;100.00;94780.06;5132835;27;20454;-63
2022/06/23 12:22:22;;;;;;;0.40;0.40;;;;;;;27.73;100.00;94779.28;5132706;28;20462;-63
2022/06/23 12:25:02;;;;;;;0.93;0.60;;;;;;;27.47;100.00;94773.09;5132227;28;21027;-63
2022/06/23 12:27:38;;;;;;;0.87;0.87;;;;;;;27.68;100.00;94783.16;5132599;27;20942;-63
2022/06/23 12:30:10;;;;;;;3.03;0.97;;;;;;;27.88;100.00;94780.84;5132439;28;20418;-63
2022/06/23 12:32:48;;;;;;;1.33;1.23;;;;;;;27.69;100.00;94796.41;5132501;28;20789;-63